createdAt,value
2017-10-13T00:00:42.946Z,25.33
2017-10-13T00:03:09.233Z,23.77
2017-10-13T00:05:35.462Z,17.63
2017-10-13T00:08:01.668Z,12.33
2017-10-13T00:10:27.922Z,19.63
2017-10-13T00:12:54.926Z,10.53
2017-10-13T00:15:21.147Z,10.90
2017-10-13T00:17:47.274Z,14.00
2017-10-13T00:20:13.469Z,20.43
2017-10-13T00:22:39.672Z,12.87
2017-10-13T00:25:05.890Z,19.70
2017-10-13T00:27:32.043Z,12.47
2017-10-13T00:29:58.972Z,11.30
2017-10-13T00:32:25.175Z,12.50
2017-10-13T00:34:51.410Z,12.67
2017-10-13T00:37:17.626Z,17.23
2017-10-13T00:39:43.802Z,24.70
2017-10-13T00:42:09.999Z,17.83
2017-10-13T00:44:36.146Z,17.77
2017-10-13T00:47:02.396Z,12.33
2017-10-13T00:49:28.566Z,10.23
2017-10-13T00:51:54.827Z,11.87
2017-10-13T00:54:21.031Z,10.53
2017-10-13T00:56:47.255Z,13.47
2017-10-13T00:59:13.418Z,16.13
2017-10-13T01:01:40.343Z,8.53
2017-10-13T01:04:07.319Z,13.63
2017-10-13T01:06:33.672Z,15.60
2017-10-13T01:08:59.984Z,12.33
2017-10-13T01:11:26.277Z,17.97
2017-10-13T01:13:52.479Z,21.73
2017-10-13T01:16:18.745Z,17.17
2017-10-13T01:18:45.035Z,13.83
2017-10-13T01:21:11.231Z,25.93
2017-10-13T01:23:37.506Z,19.20
2017-10-13T01:26:04.741Z,12.50
2017-10-13T01:28:31.714Z,14.70
2017-10-13T01:30:58.051Z,19.80
2017-10-13T01:33:24.372Z,21.93
2017-10-13T01:35:50.612Z,11.43
2017-10-13T01:38:17.613Z,20.33
2017-10-13T01:40:43.820Z,14.37
2017-10-13T01:43:10.039Z,18.33
2017-10-13T01:45:36.275Z,17.90
2017-10-13T01:48:03.305Z,16.70
2017-10-13T01:50:29.496Z,18.73
2017-10-13T01:52:55.691Z,22.33
2017-10-13T01:55:21.839Z,12.30
2017-10-13T01:57:47.982Z,17.20
2017-10-13T02:00:14.187Z,21.13
2017-10-13T02:02:40.552Z,22.83
2017-10-13T02:05:06.779Z,18.93
2017-10-13T02:07:33.024Z,16.73
2017-10-13T02:09:59.226Z,20.17
2017-10-13T02:12:26.128Z,12.57
2017-10-13T02:14:52.470Z,17.23
2017-10-13T02:17:19.467Z,12.87
2017-10-13T02:19:45.663Z,16.53
2017-10-13T02:22:11.911Z,12.80
2017-10-13T02:24:38.106Z,12.40
2017-10-13T02:27:04.346Z,22.07
2017-10-13T02:29:30.550Z,16.17
2017-10-13T02:31:56.749Z,9.27
2017-10-13T02:34:22.990Z,19.87
2017-10-13T02:36:49.972Z,16.13
2017-10-13T02:39:16.188Z,18.20
2017-10-13T02:41:43.170Z,16.53
2017-10-13T02:44:10.189Z,21.97
2017-10-13T02:46:36.386Z,16.63
2017-10-13T02:49:02.600Z,14.93
2017-10-13T02:51:28.845Z,19.20
2017-10-13T02:53:55.096Z,22.50
2017-10-13T02:56:21.293Z,17.37
2017-10-13T02:58:47.527Z,13.77
2017-10-13T03:01:14.557Z,15.73
2017-10-13T03:03:40.740Z,23.40
2017-10-13T03:06:06.937Z,28.60
2017-10-13T03:08:33.922Z,11.90
2017-10-13T03:11:00.119Z,14.23
2017-10-13T03:13:26.319Z,13.80
2017-10-13T03:15:52.551Z,13.40
2017-10-13T03:18:18.796Z,16.40
2017-10-13T03:20:45.030Z,16.40
2017-10-13T03:23:12.055Z,17.93
2017-10-13T03:25:38.244Z,11.57
2017-10-13T03:28:04.455Z,16.77
2017-10-13T03:30:30.656Z,14.13
2017-10-13T03:32:56.909Z,19.40
2017-10-13T03:35:23.087Z,14.90
2017-10-13T03:37:49.295Z,12.10
2017-10-13T03:40:15.560Z,17.73
2017-10-13T03:42:41.828Z,21.93
2017-10-13T03:45:08.084Z,15.10
2017-10-13T03:47:34.381Z,14.03
2017-10-13T03:50:00.636Z,18.37
2017-10-13T03:52:26.845Z,9.70
2017-10-13T03:54:53.109Z,23.60
2017-10-13T03:57:19.327Z,21.83
2017-10-13T03:59:45.589Z,14.10
2017-10-13T04:02:11.859Z,17.70
2017-10-13T04:04:38.192Z,33.00
2017-10-13T04:07:04.474Z,19.33
2017-10-13T04:09:30.657Z,22.83
2017-10-13T04:11:56.913Z,14.50
2017-10-13T04:14:23.104Z,16.07
2017-10-13T04:16:49.305Z,13.80
2017-10-13T04:19:15.586Z,14.17
2017-10-13T04:21:42.545Z,24.63
2017-10-13T04:24:08.753Z,29.63
2017-10-13T04:26:34.928Z,21.73
2017-10-13T04:29:01.128Z,18.23
2017-10-13T04:31:27.345Z,11.97
2017-10-13T04:33:53.568Z,21.93
2017-10-13T04:36:19.777Z,17.50
2017-10-13T04:38:45.941Z,21.00
2017-10-13T04:41:12.436Z,20.77
2017-10-13T04:43:39.377Z,15.50
2017-10-13T04:46:05.617Z,22.13
2017-10-13T04:48:31.770Z,14.10
2017-10-13T04:50:57.962Z,15.73
2017-10-13T04:53:24.115Z,17.57
2017-10-13T04:55:51.523Z,23.83
2017-10-13T04:58:18.509Z,21.40
2017-10-13T05:00:44.737Z,29.23
2017-10-13T05:03:10.945Z,25.73
2017-10-13T05:05:37.179Z,24.33
2017-10-13T05:08:03.359Z,26.00
2017-10-13T05:10:29.628Z,16.67
2017-10-13T05:12:55.844Z,23.90
2017-10-13T05:15:22.108Z,31.00
2017-10-13T05:17:48.441Z,22.63
2017-10-13T05:20:14.705Z,20.00
2017-10-13T05:22:40.919Z,17.33
2017-10-13T05:25:07.148Z,17.23
2017-10-13T05:27:33.521Z,23.77
2017-10-13T05:29:59.783Z,31.70
2017-10-13T05:32:26.038Z,33.97
2017-10-13T05:34:53.112Z,22.03
2017-10-13T05:37:19.368Z,21.30
2017-10-13T05:39:46.325Z,29.13
2017-10-13T05:42:12.754Z,21.60
2017-10-13T05:44:38.972Z,20.80
2017-10-13T05:47:05.278Z,30.30
2017-10-13T05:49:31.457Z,28.20
2017-10-13T05:51:57.807Z,28.00
2017-10-13T05:54:23.972Z,21.10
2017-10-13T05:56:51.166Z,24.90
2017-10-13T05:59:17.361Z,19.10
2017-10-13T06:01:44.516Z,14.70
2017-10-13T06:04:10.749Z,14.00
2017-10-13T06:06:36.975Z,29.53
2017-10-13T06:09:03.370Z,29.77
2017-10-13T06:11:30.148Z,28.60
2017-10-13T06:13:56.457Z,36.50
2017-10-13T06:16:22.748Z,26.67
2017-10-13T06:18:49.029Z,23.13
2017-10-13T06:21:15.271Z,36.53
2017-10-13T06:23:41.589Z,24.90
2017-10-13T06:26:07.813Z,30.13
2017-10-13T06:28:34.943Z,28.37
2017-10-13T06:31:01.919Z,22.97
2017-10-13T06:33:28.172Z,31.83
2017-10-13T06:35:54.398Z,24.37
2017-10-13T06:38:21.020Z,25.97
2017-10-13T06:40:47.987Z,26.37
2017-10-13T06:43:14.221Z,30.07
2017-10-13T06:45:40.469Z,25.47
2017-10-13T06:48:07.027Z,23.30
2017-10-13T06:50:33.248Z,35.17
2017-10-13T06:52:59.506Z,27.33
2017-10-13T06:55:25.732Z,29.13
2017-10-13T06:57:51.907Z,27.13
2017-10-13T07:00:18.151Z,41.37
2017-10-13T07:02:44.456Z,33.63
2017-10-13T07:05:10.686Z,44.23
2017-10-13T07:07:37.026Z,45.37
2017-10-13T07:10:03.222Z,42.20
2017-10-13T07:12:29.515Z,35.63
2017-10-13T07:14:55.806Z,29.37
2017-10-13T07:17:22.068Z,43.00
2017-10-13T07:19:49.048Z,45.03
2017-10-13T07:22:15.431Z,36.07
2017-10-13T07:24:41.679Z,39.20
2017-10-13T07:27:07.905Z,43.67
2017-10-13T07:29:34.162Z,38.17
2017-10-13T07:32:00.364Z,37.43
2017-10-13T07:34:26.603Z,45.00
2017-10-13T07:36:52.796Z,39.73
2017-10-13T07:39:19.000Z,41.03
2017-10-13T07:41:45.203Z,40.53
2017-10-13T07:44:11.528Z,32.33
2017-10-13T07:46:37.752Z,37.03
2017-10-13T07:49:04.017Z,55.27
2017-10-13T07:51:30.180Z,35.73
2017-10-13T07:53:56.431Z,36.20
2017-10-13T07:56:22.703Z,37.80
2017-10-13T07:58:48.922Z,29.37
2017-10-13T08:01:15.187Z,25.63
2017-10-13T08:03:41.513Z,32.80
2017-10-13T08:06:07.684Z,32.10
2017-10-13T08:08:34.660Z,32.50
2017-10-13T08:11:00.877Z,33.37
2017-10-13T08:13:27.102Z,29.60
2017-10-13T08:15:53.329Z,36.33
2017-10-13T08:18:19.557Z,34.67
2017-10-13T08:20:45.834Z,32.77
2017-10-13T08:23:12.163Z,39.60
2017-10-13T08:25:38.445Z,37.07
2017-10-13T08:28:04.733Z,32.13
2017-10-13T08:30:31.032Z,29.83
2017-10-13T08:32:57.555Z,27.87
2017-10-13T08:35:24.554Z,24.33
2017-10-13T08:37:50.986Z,35.50
2017-10-13T08:40:17.213Z,29.30
2017-10-13T08:42:43.508Z,32.70
2017-10-13T08:45:09.708Z,23.77
2017-10-13T08:47:35.934Z,32.40
2017-10-13T08:50:02.275Z,28.40
2017-10-13T08:52:29.251Z,23.50
2017-10-13T08:54:55.428Z,25.50
2017-10-13T08:57:21.687Z,21.63
2017-10-13T08:59:48.000Z,20.37
2017-10-13T09:02:14.223Z,21.10
2017-10-13T09:04:41.273Z,25.17
2017-10-13T09:07:07.539Z,21.63
2017-10-13T09:09:33.828Z,22.27
2017-10-13T09:12:00.157Z,22.93
2017-10-13T09:14:26.443Z,21.47
2017-10-13T09:16:52.621Z,19.93
2017-10-13T09:19:20.922Z,22.87
2017-10-13T09:21:52.030Z,22.60
2017-10-13T09:24:18.263Z,22.47
2017-10-13T09:26:44.471Z,23.67
2017-10-13T09:29:10.670Z,24.83
2017-10-13T09:31:36.927Z,25.53
2017-10-13T09:34:03.932Z,19.83
2017-10-13T09:36:30.250Z,19.93
2017-10-13T09:38:56.466Z,20.20
2017-10-13T09:41:22.718Z,24.17
2017-10-13T09:43:48.892Z,21.93
2017-10-13T09:46:15.135Z,26.53
2017-10-13T09:48:42.136Z,25.77
2017-10-13T09:51:08.389Z,27.60
2017-10-13T09:53:35.376Z,18.50
2017-10-13T09:56:01.577Z,21.20
2017-10-13T09:58:27.800Z,22.03
2017-10-13T10:00:54.020Z,25.90
2017-10-13T10:03:20.286Z,19.30
2017-10-13T10:05:46.505Z,19.53
2017-10-13T10:08:13.319Z,23.30
2017-10-13T10:10:39.594Z,22.70
2017-10-13T10:13:05.763Z,17.43
2017-10-13T10:15:31.985Z,22.60
2017-10-13T10:17:58.192Z,21.87
2017-10-13T10:20:24.406Z,21.57
2017-10-13T10:22:50.744Z,21.43
2017-10-13T10:25:17.527Z,20.70
2017-10-13T10:27:44.618Z,19.43
2017-10-13T10:30:10.819Z,35.60
2017-10-13T10:32:37.047Z,19.17
2017-10-13T10:35:05.643Z,29.10
2017-10-13T10:37:31.900Z,19.40
2017-10-13T10:39:58.274Z,16.83
2017-10-13T10:42:24.513Z,21.80
2017-10-13T10:44:50.712Z,21.20
2017-10-13T10:47:17.691Z,20.50
2017-10-13T10:49:43.922Z,18.80
2017-10-13T10:52:10.430Z,21.80
2017-10-13T10:54:36.650Z,21.67
2017-10-13T10:57:03.262Z,23.20
2017-10-13T10:59:29.496Z,16.00
2017-10-13T11:01:55.681Z,24.53
2017-10-13T11:04:21.892Z,22.70
2017-10-13T11:06:48.129Z,29.90
2017-10-13T11:09:14.387Z,16.33
2017-10-13T11:11:40.624Z,23.33
2017-10-13T11:14:06.862Z,22.77
2017-10-13T11:16:33.009Z,19.37
2017-10-13T11:19:00.199Z,24.87
2017-10-13T11:21:26.408Z,19.60
2017-10-13T11:23:52.696Z,19.97
2017-10-13T11:26:19.185Z,24.80
2017-10-13T11:36:18.875Z,25.00
2017-10-13T11:38:45.105Z,22.73
2017-10-13T11:41:12.082Z,28.23
2017-10-13T11:43:38.336Z,21.07
2017-10-13T11:46:04.578Z,17.73
2017-10-13T11:48:30.848Z,26.40
2017-10-13T11:50:57.098Z,20.30
2017-10-13T11:53:24.075Z,16.43
2017-10-13T11:55:50.550Z,17.00
2017-10-13T11:58:16.805Z,21.03
2017-10-13T12:00:43.043Z,30.70
2017-10-13T12:03:09.300Z,15.07
2017-10-13T12:05:35.515Z,21.87
2017-10-13T12:08:01.864Z,17.43
2017-10-13T12:10:28.083Z,18.40
2017-10-13T12:12:54.309Z,15.93
2017-10-13T12:15:20.535Z,19.57
2017-10-13T12:17:46.745Z,24.83
2017-10-13T12:20:13.160Z,13.37
2017-10-13T12:22:39.377Z,20.47
2017-10-13T12:25:05.639Z,18.17
2017-10-13T12:27:31.875Z,17.77
2017-10-13T12:29:58.077Z,13.90
2017-10-13T12:32:24.263Z,14.73
2017-10-13T12:34:51.231Z,19.03
2017-10-13T12:37:17.537Z,16.30
2017-10-13T12:39:43.761Z,17.20
2017-10-13T12:42:09.934Z,13.67
2017-10-13T12:44:36.128Z,13.67
2017-10-13T12:47:03.220Z,11.13
2017-10-13T12:52:00.395Z,17.17
2017-10-13T12:54:26.709Z,11.43
2017-10-13T12:56:52.900Z,12.20
2017-10-13T12:59:19.230Z,9.93
2017-10-13T13:01:45.420Z,16.03
2017-10-13T13:04:11.668Z,10.33
2017-10-13T13:06:37.994Z,10.87
2017-10-13T13:09:04.922Z,10.93
2017-10-13T13:11:31.898Z,13.37
2017-10-13T13:13:58.112Z,12.60
2017-10-13T13:16:24.295Z,11.30
2017-10-13T13:18:50.557Z,10.50
2017-10-13T13:21:16.727Z,17.53
2017-10-13T13:23:42.921Z,9.40
2017-10-13T13:26:09.872Z,14.57
2017-10-13T13:28:36.039Z,12.87
2017-10-13T13:31:02.337Z,11.07
2017-10-13T13:33:28.589Z,13.27
2017-10-13T13:35:54.796Z,17.63
2017-10-13T13:38:20.977Z,14.40
2017-10-13T13:40:47.231Z,16.33
2017-10-13T13:43:13.588Z,11.60
2017-10-13T13:45:49.155Z,26.73
2017-10-13T13:48:15.400Z,11.97
2017-10-13T13:50:41.663Z,10.00
2017-10-13T13:53:08.019Z,13.80
2017-10-13T13:55:34.339Z,14.37
2017-10-13T13:58:01.444Z,28.07
2017-10-13T14:00:27.691Z,18.10
2017-10-13T14:02:54.675Z,11.93
2017-10-13T14:05:20.893Z,10.87
2017-10-13T14:07:47.107Z,12.93
2017-10-13T14:10:13.322Z,16.30
2017-10-13T14:12:39.628Z,20.43
2017-10-13T14:15:05.860Z,11.97
2017-10-13T14:17:32.094Z,9.80
2017-10-13T14:19:58.402Z,16.40
2017-10-13T14:24:56.343Z,19.87
2017-10-13T14:27:22.704Z,9.70
2017-10-13T14:29:48.978Z,11.67
2017-10-13T14:32:15.161Z,11.13
2017-10-13T14:34:41.389Z,9.13
2017-10-13T14:37:07.627Z,24.37
2017-10-13T14:39:33.889Z,24.13
2017-10-13T14:42:00.127Z,11.47
2017-10-13T14:44:26.674Z,16.93
2017-10-13T14:46:52.938Z,15.90
2017-10-13T14:49:19.186Z,11.90
2017-10-13T14:51:45.387Z,14.37
2017-10-13T14:54:11.572Z,12.93
2017-10-13T14:56:37.859Z,12.63
2017-10-13T14:59:04.811Z,15.53
2017-10-13T15:01:31.086Z,20.37
2017-10-13T15:03:57.343Z,12.30
2017-10-13T15:06:23.591Z,11.83
2017-10-13T15:08:49.818Z,13.07
2017-10-13T15:11:16.027Z,8.83
2017-10-13T15:13:42.274Z,12.30
2017-10-13T15:16:09.254Z,9.83
2017-10-13T15:18:35.473Z,17.10
2017-10-13T15:21:01.689Z,8.30
2017-10-13T15:23:27.940Z,9.03
2017-10-13T15:25:54.896Z,10.43
2017-10-13T15:28:27.085Z,11.70
2017-10-13T15:31:11.868Z,9.33
2017-10-13T15:33:44.229Z,9.23
2017-10-13T15:36:17.447Z,10.20
2017-10-13T15:38:49.730Z,23.03
2017-10-13T15:41:22.260Z,16.47
2017-10-13T15:43:54.480Z,13.00
2017-10-13T15:49:40.643Z,23.67
2017-10-13T15:52:12.926Z,21.77
2017-10-13T15:54:39.099Z,12.63
2017-10-13T15:57:05.286Z,28.83
2017-10-13T15:59:31.464Z,20.43
2017-10-13T16:01:58.418Z,17.80
2017-10-13T16:04:24.613Z,15.70
2017-10-13T16:06:50.823Z,22.80
2017-10-13T16:09:17.096Z,13.67
2017-10-13T16:11:43.323Z,10.00
2017-10-13T16:14:09.514Z,11.97
2017-10-13T16:16:35.688Z,18.87
2017-10-13T16:19:01.902Z,13.40
2017-10-13T16:21:28.050Z,11.40
2017-10-13T16:23:54.209Z,13.37
2017-10-13T16:26:20.399Z,15.20
2017-10-13T16:28:47.416Z,19.70
2017-10-13T16:31:13.661Z,31.03
2017-10-13T16:33:40.045Z,15.57
2017-10-13T16:36:06.260Z,10.53
2017-10-13T16:38:32.525Z,12.63
2017-10-13T16:40:58.834Z,10.60
2017-10-13T16:43:25.074Z,18.30
2017-10-13T16:45:51.334Z,14.33
2017-10-13T16:48:17.671Z,15.07
2017-10-13T16:50:43.945Z,20.30
2017-10-13T16:53:10.138Z,11.60
2017-10-13T16:55:36.410Z,12.67
2017-10-13T16:58:02.687Z,13.90
2017-10-13T17:00:28.937Z,13.73
2017-10-13T17:02:55.915Z,19.90
2017-10-13T17:05:22.124Z,15.93
2017-10-13T17:07:48.299Z,13.43
2017-10-13T17:10:14.545Z,13.53
2017-10-13T17:12:40.807Z,12.40
2017-10-13T17:15:07.776Z,27.30
2017-10-13T17:17:34.036Z,10.83
2017-10-13T17:20:00.996Z,18.20
2017-10-13T17:22:27.160Z,17.13
2017-10-13T17:24:53.409Z,16.47
2017-10-13T17:27:20.386Z,37.40
2017-10-13T17:29:46.577Z,16.00
2017-10-13T17:32:12.790Z,19.23
2017-10-13T17:34:39.107Z,17.40
2017-10-13T17:37:05.354Z,18.63
2017-10-13T17:39:31.590Z,15.60
2017-10-13T17:41:58.730Z,31.47
2017-10-13T17:44:24.939Z,25.03
2017-10-13T17:46:51.191Z,12.70
2017-10-13T17:49:17.389Z,18.03
2017-10-13T17:51:43.610Z,26.17
2017-10-13T17:54:09.783Z,14.70
2017-10-13T17:56:35.994Z,18.53
2017-10-13T17:59:02.224Z,23.17
2017-10-13T18:01:28.442Z,18.93
2017-10-13T18:03:54.589Z,38.23
2017-10-13T18:06:21.526Z,19.13
2017-10-13T18:08:48.411Z,24.27
2017-10-13T18:11:14.576Z,16.73
2017-10-13T18:13:40.758Z,17.03
2017-10-13T18:16:07.112Z,24.43
2017-10-13T18:18:33.341Z,16.90
2017-10-13T18:20:59.524Z,14.83
2017-10-13T18:23:27.110Z,15.63
2017-10-13T18:25:54.052Z,17.63
2017-10-13T18:28:20.288Z,27.47
2017-10-13T18:30:46.508Z,22.63
2017-10-13T18:33:13.512Z,32.83
2017-10-13T18:35:39.795Z,22.13
2017-10-13T18:38:06.032Z,14.90
2017-10-13T18:40:32.291Z,16.37
2017-10-13T18:42:59.197Z,15.67
2017-10-13T18:45:25.386Z,29.20
2017-10-13T18:47:51.573Z,21.30
2017-10-13T18:50:17.903Z,15.70
2017-10-13T18:52:44.167Z,18.53
2017-10-13T18:55:14.709Z,16.13
2017-10-13T18:57:41.239Z,14.53
2017-10-13T19:00:07.505Z,17.90
2017-10-13T19:02:33.791Z,17.90
2017-10-13T19:05:00.057Z,13.47
2017-10-13T19:07:26.981Z,17.03
2017-10-13T19:09:54.087Z,21.17
2017-10-13T19:12:20.306Z,16.37
2017-10-13T19:14:46.502Z,19.00
2017-10-13T19:17:13.025Z,16.40
2017-10-13T19:19:39.236Z,25.73
2017-10-13T19:22:05.448Z,18.20
2017-10-13T19:24:31.638Z,18.67
2017-10-13T19:26:58.233Z,21.50
2017-10-13T19:29:24.475Z,17.50
2017-10-13T19:31:50.677Z,20.93
2017-10-13T19:34:16.889Z,13.73
2017-10-13T19:36:43.063Z,21.13
2017-10-13T19:39:10.371Z,14.73
2017-10-13T19:41:36.759Z,22.20
2017-10-13T19:44:02.922Z,18.03
2017-10-13T19:46:29.113Z,14.80
2017-10-13T19:48:55.596Z,24.13
2017-10-13T19:51:22.039Z,24.83
2017-10-13T19:53:48.336Z,19.93
2017-10-13T19:56:14.624Z,12.40
2017-10-13T19:58:40.828Z,15.37
2017-10-13T20:01:08.752Z,13.87
2017-10-13T20:03:35.177Z,14.87
2017-10-13T20:06:02.307Z,12.33
2017-10-13T20:08:29.545Z,20.30
2017-10-13T20:10:55.897Z,18.37
2017-10-13T20:13:22.144Z,16.07
2017-10-13T20:15:49.048Z,13.20
2017-10-13T20:18:15.264Z,20.47
2017-10-13T20:20:41.597Z,17.73
2017-10-13T20:23:07.760Z,23.67
2017-10-13T20:25:33.946Z,16.90
2017-10-13T20:28:01.374Z,9.93
2017-10-13T20:30:27.640Z,15.07
2017-10-13T20:32:54.339Z,16.50
2017-10-13T20:35:22.047Z,16.37
2017-10-13T20:37:48.327Z,14.57
2017-10-13T20:40:14.775Z,16.00
2017-10-13T20:42:41.259Z,17.27
2017-10-13T20:45:07.535Z,18.37
2017-10-13T20:47:33.898Z,15.60
2017-10-13T20:50:00.110Z,27.43
2017-10-13T20:52:27.315Z,16.13
2017-10-13T20:54:54.540Z,19.07
2017-10-13T20:57:20.763Z,13.70
2017-10-13T20:59:46.907Z,19.30
2017-10-13T21:02:13.429Z,19.90
2017-10-13T21:04:39.745Z,23.30
2017-10-13T21:07:06.676Z,17.77
2017-10-13T21:09:32.879Z,16.90
2017-10-13T21:11:59.128Z,15.33
2017-10-13T21:14:25.308Z,20.60
2017-10-13T21:16:51.518Z,18.07
2017-10-13T21:19:17.684Z,17.10
2017-10-13T21:21:43.952Z,15.70
2017-10-13T21:24:10.119Z,15.00
2017-10-13T21:26:36.287Z,21.67
2017-10-13T21:29:02.515Z,21.27
2017-10-13T21:31:28.770Z,15.37
2017-10-13T21:33:54.930Z,25.77
2017-10-13T21:36:21.199Z,32.57
2017-10-13T21:38:47.425Z,47.33
2017-10-13T21:41:13.699Z,64.70
2017-10-13T21:43:40.552Z,36.60
2017-10-13T21:46:20.278Z,37.10
2017-10-13T21:48:46.725Z,31.27
2017-10-13T21:51:13.262Z,22.17
2017-10-13T21:53:39.760Z,25.67
2017-10-13T21:56:06.179Z,17.00
2017-10-13T21:58:35.061Z,18.97
2017-10-13T22:01:01.546Z,20.33
2017-10-13T22:03:27.850Z,33.60
2017-10-13T22:05:54.942Z,16.23
2017-10-13T22:08:21.352Z,14.80
2017-10-13T22:10:48.419Z,19.67
2017-10-13T22:13:14.963Z,18.47
2017-10-13T22:15:41.349Z,24.47
2017-10-13T22:18:07.717Z,18.77
2017-10-13T22:20:34.102Z,28.47
2017-10-13T22:23:00.512Z,19.27
2017-10-13T22:25:26.878Z,22.33
2017-10-13T22:27:53.340Z,28.23
2017-10-13T22:30:19.840Z,21.57
2017-10-13T22:32:46.172Z,17.57
2017-10-13T22:35:12.498Z,21.00
2017-10-13T22:37:38.795Z,19.00
2017-10-13T22:40:05.157Z,18.07
2017-10-13T22:42:32.509Z,22.20
2017-10-13T22:44:58.942Z,21.93
2017-10-13T22:47:25.500Z,19.63
2017-10-13T22:49:52.818Z,26.40
2017-10-13T22:52:19.175Z,16.83
2017-10-13T22:54:45.548Z,27.33
2017-10-13T22:57:12.646Z,20.20
2017-10-13T22:59:39.076Z,20.73
2017-10-13T23:02:06.190Z,32.23
2017-10-13T23:04:32.536Z,18.97
2017-10-13T23:06:59.810Z,20.50
2017-10-13T23:09:26.347Z,23.20
2017-10-13T23:11:52.788Z,16.30
2017-10-13T23:14:19.148Z,20.50
2017-10-13T23:16:46.278Z,24.73
2017-10-13T23:19:12.679Z,18.20
2017-10-13T23:21:39.782Z,18.20
2017-10-13T23:24:06.166Z,16.00
2017-10-13T23:26:32.508Z,16.07
2017-10-13T23:28:58.988Z,19.00
2017-10-13T23:31:25.463Z,21.83
2017-10-13T23:33:51.786Z,18.57
2017-10-13T23:36:18.171Z,15.30
2017-10-13T23:38:44.697Z,15.53
2017-10-13T23:41:11.073Z,16.00
2017-10-13T23:43:37.504Z,24.53
2017-10-13T23:46:03.939Z,16.53
2017-10-13T23:48:30.777Z,21.70
2017-10-13T23:50:57.115Z,19.07
2017-10-13T23:53:23.452Z,15.43
2017-10-13T23:55:49.918Z,15.13
2017-10-13T23:58:16.367Z,15.67
